createdAt,value
2022-09-15T00:02:16.668Z,113.40968
2022-09-15T00:07:17.813Z,112.98438
2022-09-15T00:12:18.799Z,113.23257
2022-09-15T00:17:19.724Z,113.83262
2022-09-15T00:22:20.664Z,114.39967
2022-09-15T00:27:21.653Z,114.60822
2022-09-15T00:32:22.846Z,114.94036
2022-09-15T00:37:23.765Z,115.01077
2022-09-15T00:42:24.843Z,115.12556
2022-09-15T00:47:25.988Z,115.01684
2022-09-15T00:52:27.078Z,114.67166
2022-09-15T00:57:28.135Z,114.13579
2022-09-15T01:02:29.209Z,113.8143
2022-09-15T01:07:30.151Z,113.9642
2022-09-15T01:12:31.277Z,114.17133
2022-09-15T01:17:32.205Z,114.59443
2022-09-15T01:22:33.193Z,114.39863
2022-09-15T01:27:41.602Z,114.33559
2022-09-15T01:32:43.085Z,113.26678
2022-09-15T01:37:44.153Z,113.24259
2022-09-15T01:42:45.158Z,113.3885
2022-09-15T01:47:46.172Z,113.11948
2022-09-15T01:52:47.242Z,113.17139
2022-09-15T01:57:48.153Z,113.36978
2022-09-15T02:02:49.292Z,113.69547
2022-09-15T02:07:50.212Z,114.15859
2022-09-15T02:12:51.284Z,114.10748
2022-09-15T02:17:52.233Z,113.33387
2022-09-15T02:22:53.158Z,113.00587
2022-09-15T02:27:54.208Z,113.30748
2022-09-15T02:32:55.144Z,113.76489
2022-09-15T02:37:56.064Z,113.9208
2022-09-15T02:42:57.071Z,114.09442
2022-09-15T02:47:58.049Z,114.38848
2022-09-15T02:52:58.997Z,114.47601
2022-09-15T02:58:00.034Z,112.48486
2022-09-15T03:03:00.990Z,112.59301
2022-09-15T03:08:01.949Z,112.64051
2022-09-15T03:13:03.100Z,112.79154
2022-09-15T03:18:04.084Z,113.04219
2022-09-15T03:23:05.149Z,113.32277
2022-09-15T03:28:06.118Z,113.20664
2022-09-15T03:33:07.262Z,113.17764
2022-09-15T03:38:08.212Z,113.23892
2022-09-15T03:43:09.204Z,112.96387
2022-09-15T03:48:10.185Z,113.42433
2022-09-15T03:53:11.128Z,113.30876
2022-09-15T03:58:12.032Z,113.42271
2022-09-15T04:03:12.968Z,113.51175
2022-09-15T04:08:13.884Z,113.00098
2022-09-15T04:13:14.898Z,113.07396
2022-09-15T04:18:15.923Z,112.81676
2022-09-15T04:23:16.806Z,113.02444
2022-09-15T04:28:17.810Z,112.78954
2022-09-15T04:33:18.934Z,112.66951
2022-09-15T04:38:19.873Z,112.89591
2022-09-15T04:43:20.897Z,112.70866
2022-09-15T04:48:21.861Z,113.08345
2022-09-15T04:53:23.073Z,113.19
2022-09-15T04:58:24.000Z,113.03076
2022-09-15T05:03:25.025Z,112.95549
2022-09-15T05:08:25.936Z,113.18428
2022-09-15T05:13:26.965Z,112.80015
2022-09-15T05:18:27.902Z,113.1744
2022-09-15T05:23:29.022Z,112.59747
2022-09-15T05:28:30.168Z,112.72435
2022-09-15T05:33:31.258Z,112.79469
2022-09-15T05:38:32.312Z,113.06931
2022-09-15T05:43:33.416Z,112.71456
2022-09-15T05:48:34.442Z,113.19482
2022-09-15T05:53:35.447Z,113.14651
2022-09-15T05:58:36.365Z,113.50094
2022-09-15T06:03:37.390Z,113.48812
2022-09-15T06:08:40.531Z,112.98006
2022-09-15T06:13:44.708Z,111.9909
2022-09-15T06:18:45.983Z,111.51151
2022-09-15T06:23:50.712Z,111.34501
2022-09-15T06:28:51.988Z,111.47292
2022-09-15T06:33:53.267Z,111.70119
2022-09-15T06:38:54.457Z,112.38565
2022-09-15T06:43:55.447Z,112.15757
2022-09-15T06:48:56.462Z,112.47968
2022-09-15T06:53:57.535Z,112.74762
2022-09-15T06:58:58.555Z,112.21728
2022-09-15T07:03:59.550Z,112.22013
2022-09-15T07:09:00.503Z,112.57595
2022-09-15T07:14:01.675Z,112.68053
2022-09-15T07:19:02.614Z,112.0012
2022-09-15T07:24:07.030Z,111.84096
2022-09-15T07:29:08.640Z,111.27703
2022-09-15T07:34:09.579Z,110.88885
2022-09-15T07:39:10.580Z,110.72679
2022-09-15T07:44:11.516Z,109.70614
2022-09-15T07:49:12.665Z,109.76249
2022-09-15T07:54:16.265Z,109.8112
2022-09-15T07:59:19.646Z,108.55873
2022-09-15T08:04:20.675Z,108.01366
2022-09-15T08:09:21.618Z,107.92407
2022-09-15T08:14:22.740Z,108.69223
2022-09-15T08:19:23.821Z,108.93342
2022-09-15T08:29:25.287Z,108.42199
2022-09-15T08:34:26.324Z,108.16874
2022-09-15T08:39:27.330Z,107.97533
2022-09-15T08:44:28.647Z,107.6966
2022-09-15T08:49:47.832Z,107.75876
2022-09-15T08:54:52.374Z,108.02321
2022-09-15T08:59:53.389Z,107.84082
2022-09-15T09:04:54.430Z,107.81632
2022-09-15T09:09:55.368Z,108.1139
2022-09-15T09:14:56.302Z,107.67857
2022-09-15T09:19:57.232Z,107.77172
2022-09-15T09:24:58.234Z,107.68495
2022-09-15T09:29:59.222Z,107.90043
2022-09-15T09:35:00.225Z,107.97433
2022-09-15T09:40:01.294Z,108.44777
2022-09-15T09:45:02.418Z,108.27262
2022-09-15T09:50:03.500Z,108.93359
2022-09-15T09:55:04.591Z,108.06263
2022-09-15T10:00:05.512Z,108.37026
2022-09-15T10:05:06.614Z,108.33299
2022-09-15T10:10:07.786Z,108.34001
2022-09-15T10:15:08.763Z,108.22952
2022-09-15T10:20:10.401Z,108.81047
2022-09-15T10:25:11.405Z,108.94834
2022-09-15T10:30:12.446Z,109.59374
2022-09-15T10:35:13.680Z,109.19738
2022-09-15T10:40:14.615Z,108.62563
2022-09-15T10:45:15.608Z,108.70414
2022-09-15T10:50:16.613Z,109.07626
2022-09-15T10:55:24.812Z,109.78561
2022-09-15T11:00:38.148Z,110.4023
2022-09-15T11:05:39.125Z,110.66156
2022-09-15T11:10:40.040Z,110.34795
2022-09-15T11:15:42.184Z,111.12828
2022-09-15T11:20:43.257Z,111.03624
2022-09-15T11:25:44.169Z,111.1346
2022-09-15T11:30:47.803Z,111.34019
2022-09-15T11:35:49.200Z,111.89425
2022-09-15T11:40:50.256Z,111.62785
2022-09-15T11:45:51.236Z,111.38334
2022-09-15T11:50:52.158Z,111.50301
2022-09-15T11:55:53.165Z,111.43838
2022-09-15T12:00:54.062Z,111.20146
2022-09-15T12:05:54.986Z,110.95278
2022-09-15T12:10:55.937Z,110.4683
2022-09-15T12:15:57.487Z,110.3586
2022-09-15T12:20:58.564Z,110.82452
2022-09-15T12:25:59.463Z,109.64038
2022-09-15T12:31:00.502Z,110.58546
2022-09-15T12:36:01.614Z,110.14301
2022-09-15T12:41:02.533Z,109.79397
2022-09-15T12:46:03.711Z,110.23785
2022-09-15T12:51:04.598Z,109.84449
2022-09-15T12:56:05.489Z,110.3128
2022-09-15T13:01:18.088Z,110.21274
2022-09-15T13:06:19.818Z,111.08087
2022-09-15T13:11:20.762Z,111.55714
2022-09-15T13:16:21.728Z,111.05365
2022-09-15T13:21:22.734Z,110.84636
2022-09-15T13:26:23.949Z,110.70564
2022-09-15T13:31:24.929Z,111.45415
2022-09-15T13:36:26.630Z,111.94051
2022-09-15T13:41:27.721Z,112.18391
2022-09-15T13:46:28.942Z,112.26021
2022-09-15T13:51:29.979Z,112.24609
2022-09-15T14:01:45.351Z,113.77961
2022-09-15T14:06:46.355Z,113.66111
2022-09-15T14:11:47.298Z,113.57129
2022-09-15T14:16:48.523Z,113.73946
2022-09-15T14:21:49.478Z,113.4882
2022-09-15T14:26:50.368Z,113.96246
2022-09-15T14:31:51.479Z,114.18816
2022-09-15T14:36:52.509Z,113.57481
2022-09-15T14:41:53.473Z,113.96919
2022-09-15T14:46:54.418Z,114.07323
2022-09-15T14:51:55.335Z,113.94761
2022-09-15T14:56:58.299Z,114.16824
2022-09-15T15:01:59.309Z,114.17777
2022-09-15T15:07:00.265Z,114.29623
2022-09-15T15:12:01.237Z,114.20415
2022-09-15T15:17:02.696Z,113.63391
2022-09-15T15:22:03.671Z,113.51728
2022-09-15T15:27:04.686Z,113.63699
2022-09-15T15:32:05.650Z,113.72176
2022-09-15T15:37:06.612Z,112.69053
2022-09-15T15:42:07.543Z,112.98102
2022-09-15T15:47:08.550Z,112.8194
2022-09-15T15:52:09.620Z,112.32856
2022-09-15T15:57:10.696Z,112.00488
2022-09-15T16:02:11.839Z,110.9244
2022-09-15T16:07:12.869Z,109.87118
2022-09-15T16:12:13.789Z,109.45181
2022-09-15T16:17:15.091Z,109.24929
2022-09-15T16:22:16.017Z,109.42069
2022-09-15T16:27:16.930Z,109.34596
2022-09-15T16:32:17.867Z,109.522
2022-09-15T16:37:18.869Z,109.24801
2022-09-15T16:42:19.782Z,109.41123
2022-09-15T16:47:21.083Z,109.1251
2022-09-15T16:52:22.352Z,109.45415
2022-09-15T16:57:23.766Z,108.77276
2022-09-15T17:02:24.984Z,108.84253
2022-09-15T17:07:25.989Z,108.6594
2022-09-15T17:12:26.961Z,109.04663
2022-09-15T17:17:28.436Z,108.71226
2022-09-15T17:22:29.583Z,108.72303
2022-09-15T17:27:30.461Z,108.2247
2022-09-15T17:32:34.776Z,107.96844
2022-09-15T17:37:35.986Z,106.99895
2022-09-15T17:42:36.982Z,106.92571
2022-09-15T17:47:37.869Z,107.15598
2022-09-15T17:52:38.888Z,107.20891
2022-09-15T17:57:40.707Z,107.72462
2022-09-15T18:02:41.677Z,107.29488
2022-09-15T18:07:47.724Z,106.82661
2022-09-15T18:12:50.108Z,106.73829
2022-09-15T18:17:53.390Z,106.47168
2022-09-15T18:22:54.319Z,106.44617
2022-09-15T18:27:55.247Z,105.99117
2022-09-15T18:32:56.145Z,106.1285
2022-09-15T18:37:57.115Z,105.87362
2022-09-15T18:42:58.049Z,105.01305
2022-09-15T18:47:58.968Z,104.27229
2022-09-15T18:53:00.017Z,103.04516
2022-09-15T18:58:01.313Z,103.47602
2022-09-15T19:03:02.479Z,103.68391
2022-09-15T19:08:03.373Z,104.22808
2022-09-15T19:13:04.358Z,103.92243
2022-09-15T19:18:05.298Z,103.65874
2022-09-15T19:23:06.333Z,103.49151
2022-09-15T19:28:07.278Z,103.61159
2022-09-15T19:33:08.220Z,103.50892
2022-09-15T19:38:09.118Z,103.20253
2022-09-15T19:43:10.017Z,103.31488
2022-09-15T19:48:11.016Z,103.01157
2022-09-15T19:53:12.001Z,102.97811
2022-09-15T19:58:12.908Z,102.98355
2022-09-15T20:03:13.800Z,102.79083
2022-09-15T20:08:15.265Z,103.37819
2022-09-15T20:13:16.326Z,103.37121
2022-09-15T20:18:17.296Z,103.25124
2022-09-15T20:23:18.312Z,102.55928
2022-09-15T20:28:19.243Z,102.27942
2022-09-15T20:33:20.169Z,101.64047
2022-09-15T20:38:21.234Z,101.92728
2022-09-15T20:43:22.169Z,101.56203
2022-09-15T20:48:24.061Z,101.10946
2022-09-15T20:53:26.457Z,101.68408
2022-09-15T20:58:27.530Z,101.75973
2022-09-15T21:03:28.474Z,101.15704
2022-09-15T21:08:29.443Z,101.00013
2022-09-15T21:13:30.380Z,100.25374
2022-09-15T21:18:31.284Z,100.75916
2022-09-15T21:23:32.230Z,101.25901
2022-09-15T21:28:33.146Z,100.43838
2022-09-15T21:33:34.031Z,100.64209
2022-09-15T21:38:34.940Z,100.40442
2022-09-15T21:43:36.050Z,99.93198
2022-09-15T21:48:37.102Z,100.05895
2022-09-15T21:53:38.123Z,99.75429
2022-09-15T21:58:42.647Z,99.41087
2022-09-15T22:03:44.642Z,98.75637
2022-09-15T22:08:45.866Z,98.20419
2022-09-15T22:13:47.030Z,97.34683
2022-09-15T22:18:48.241Z,97.13545
2022-09-15T22:23:49.196Z,96.81282
2022-09-15T22:28:50.118Z,96.57545
2022-09-15T22:33:51.057Z,96.0716
2022-09-15T22:38:52.020Z,96.33412
2022-09-15T22:43:53.058Z,96.36278
2022-09-15T22:48:54.001Z,96.86866
2022-09-15T22:53:55.027Z,96.68527
2022-09-15T22:58:56.127Z,96.81484
2022-09-15T23:03:57.279Z,96.99901
2022-09-15T23:08:58.267Z,96.32588
2022-09-15T23:13:59.185Z,96.75652
2022-09-15T23:19:00.111Z,96.51979
2022-09-15T23:24:01.145Z,96.45332
2022-09-15T23:29:02.081Z,96.48181
2022-09-15T23:34:03.070Z,96.1507
2022-09-15T23:39:04.057Z,96.1886
2022-09-15T23:44:05.441Z,96.6569
2022-09-15T23:49:06.344Z,96.62037
2022-09-15T23:54:07.281Z,96.26849
2022-09-15T23:59:08.330Z,96.21118
